createdAt,value
2023-11-18T00:01:56.230Z,81.98
2023-11-18T00:04:58.629Z,81.84
2023-11-18T00:08:01.175Z,82.42
2023-11-18T00:11:04.193Z,81.25
2023-11-18T00:14:07.340Z,81.54
2023-11-18T00:17:09.710Z,81.33
2023-11-18T00:20:13.509Z,80.75
2023-11-18T00:23:17.101Z,81.68
2023-11-18T00:26:20.355Z,81.84
2023-11-18T00:29:26.625Z,82.13
2023-11-18T00:32:29.371Z,81.79
2023-11-18T00:35:33.134Z,83.34
2023-11-18T00:38:35.416Z,83.35
2023-11-18T00:41:37.737Z,83.18
2023-11-18T00:44:40.084Z,83.56
2023-11-18T00:47:42.580Z,84.04
2023-11-18T00:50:45.138Z,84.44
2023-11-18T00:53:47.436Z,84.52
2023-11-18T00:56:49.726Z,83.92
2023-11-18T00:59:52.142Z,84.75
2023-11-18T01:02:57.992Z,84.43
2023-11-18T01:06:00.445Z,84.78
2023-11-18T01:09:02.765Z,84.82
2023-11-18T01:12:08.910Z,84.54
2023-11-18T01:15:11.992Z,84.76
2023-11-18T01:18:14.404Z,84.47
2023-11-18T01:21:18.617Z,84.63
2023-11-18T01:24:21.588Z,85.12
2023-11-18T01:27:24.002Z,84.99
2023-11-18T01:30:27.910Z,85.03
2023-11-18T01:33:30.363Z,85.11
2023-11-18T01:36:32.789Z,85.22
2023-11-18T01:39:35.750Z,85.16
2023-11-18T01:42:38.333Z,85.02
2023-11-18T01:45:43.805Z,85.86
2023-11-18T01:48:46.173Z,85.31
2023-11-18T01:51:48.899Z,85.62
2023-11-18T01:54:51.212Z,85.88
2023-11-18T01:57:53.528Z,86.48
2023-11-18T02:00:56.849Z,86.38
2023-11-18T02:04:00.359Z,87.13
2023-11-18T02:07:05.514Z,87.33
2023-11-18T02:10:10.510Z,87.41
2023-11-18T02:13:41.696Z,87.64
2023-11-18T02:16:46.359Z,87.78
2023-11-18T02:19:49.294Z,87.91
2023-11-18T02:22:52.664Z,87.57
2023-11-18T02:25:56.772Z,87.17
2023-11-18T02:28:59.345Z,87.92
2023-11-18T02:32:35.850Z,87.54
2023-11-18T02:35:49.569Z,87.35
2023-11-18T02:38:52.413Z,86.84
2023-11-18T02:42:00.046Z,87.48
2023-11-18T02:45:03.335Z,87.11
2023-11-18T02:48:07.697Z,86.77
2023-11-18T02:51:13.252Z,87.00
2023-11-18T02:54:17.532Z,87.30
2023-11-18T02:57:19.843Z,87.59
2023-11-18T03:00:24.711Z,86.93
2023-11-18T03:03:28.667Z,87.26
2023-11-18T03:06:31.538Z,86.45
2023-11-18T03:09:36.133Z,86.95
2023-11-18T03:12:41.920Z,86.97
2023-11-18T03:15:44.236Z,87.31
2023-11-18T03:18:46.561Z,87.04
2023-11-18T03:21:54.713Z,86.36
2023-11-18T03:24:57.144Z,87.10
2023-11-18T03:28:00.366Z,86.88
2023-11-18T03:31:03.149Z,87.64
2023-11-18T03:34:05.528Z,86.81
2023-11-18T03:37:07.911Z,86.26
2023-11-18T03:40:12.825Z,86.98
2023-11-18T03:43:15.164Z,86.62
2023-11-18T03:46:17.598Z,87.45
2023-11-18T03:49:21.335Z,87.89
2023-11-18T03:52:24.130Z,87.76
2023-11-18T03:55:29.213Z,87.90
2023-11-18T03:58:33.995Z,88.20
2023-11-18T04:01:36.458Z,87.95
2023-11-18T04:04:40.303Z,88.44
2023-11-18T04:07:43.290Z,88.31
2023-11-18T04:10:45.690Z,87.67
2023-11-18T04:13:48.042Z,88.20
2023-11-18T04:16:50.642Z,88.97
2023-11-18T04:19:53.664Z,88.85
2023-11-18T04:22:56.072Z,88.99
2023-11-18T04:25:58.443Z,89.61
2023-11-18T04:29:00.825Z,89.37
2023-11-18T04:32:03.604Z,89.34
2023-11-18T04:35:10.975Z,89.13
2023-11-18T04:38:13.510Z,90.07
2023-11-18T04:41:16.554Z,90.35
2023-11-18T04:44:19.037Z,90.63
2023-11-18T04:47:21.549Z,89.44
2023-11-18T04:50:23.956Z,89.28
2023-11-18T04:53:26.730Z,89.34
2023-11-18T04:56:28.994Z,90.08
2023-11-18T04:59:32.099Z,90.04
2023-11-18T05:02:35.576Z,90.19
2023-11-18T05:05:39.041Z,89.78
2023-11-18T05:08:41.401Z,89.98
2023-11-18T05:11:43.974Z,89.34
2023-11-18T05:14:46.252Z,89.36
2023-11-18T05:17:48.551Z,89.64
2023-11-18T05:20:51.293Z,90.23
2023-11-18T05:23:53.672Z,89.92
2023-11-18T05:26:56.782Z,90.08
2023-11-18T05:30:00.540Z,89.60
2023-11-18T05:33:06.945Z,89.99
2023-11-18T05:36:09.672Z,89.39
2023-11-18T05:39:12.131Z,90.47
2023-11-18T05:42:14.950Z,91.06
2023-11-18T05:45:29.739Z,89.77
2023-11-18T05:48:33.206Z,90.60
2023-11-18T05:51:36.235Z,91.06
2023-11-18T05:54:38.575Z,91.45
2023-11-18T05:57:40.740Z,91.02
2023-11-18T06:00:42.934Z,90.36
2023-11-18T06:03:46.953Z,90.69
2023-11-18T06:06:49.396Z,90.50
2023-11-18T06:09:52.074Z,90.21
2023-11-18T06:12:59.208Z,89.84
2023-11-18T06:16:01.479Z,88.58
2023-11-18T06:19:06.189Z,87.36
2023-11-18T06:22:08.394Z,83.37
2023-11-18T06:25:10.742Z,80.72
2023-11-18T06:28:13.056Z,77.38
2023-11-18T06:31:15.501Z,75.57
2023-11-18T06:34:19.276Z,74.59
2023-11-18T06:37:22.174Z,73.12
2023-11-18T06:40:27.817Z,68.79
2023-11-18T06:43:42.680Z,66.62
2023-11-18T06:46:45.601Z,65.13
2023-11-18T06:49:48.886Z,62.71
2023-11-18T06:52:52.252Z,59.64
2023-11-18T06:55:55.379Z,57.08
2023-11-18T06:58:58.198Z,55.33
2023-11-18T07:02:00.539Z,53.36
2023-11-18T07:05:02.935Z,52.79
2023-11-18T07:08:05.584Z,51.80
2023-11-18T07:11:07.927Z,49.98
2023-11-18T07:14:13.822Z,49.69
2023-11-18T07:17:16.173Z,47.26
2023-11-18T07:20:18.694Z,47.81
2023-11-18T07:23:21.059Z,46.83
2023-11-18T07:26:25.115Z,47.03
2023-11-18T07:29:28.116Z,44.44
2023-11-18T07:32:31.142Z,44.11
2023-11-18T07:35:33.690Z,43.14
2023-11-18T07:38:36.019Z,40.97
2023-11-18T07:41:38.541Z,41.96
2023-11-18T07:44:41.135Z,41.88
2023-11-18T07:47:43.492Z,41.38
2023-11-18T07:50:45.975Z,42.23
2023-11-18T07:53:51.752Z,41.36
2023-11-18T07:56:55.119Z,40.02
2023-11-18T07:59:57.498Z,38.06
2023-11-18T08:03:01.469Z,38.28
2023-11-18T08:06:04.323Z,36.81
2023-11-18T08:09:11.880Z,37.11
2023-11-18T08:12:14.139Z,36.26
2023-11-18T08:15:17.946Z,38.33
2023-11-18T08:18:22.693Z,37.20
2023-11-18T08:21:25.073Z,35.67
2023-11-18T08:24:27.814Z,35.13
2023-11-18T08:27:30.134Z,36.06
2023-11-18T08:30:35.108Z,36.05
2023-11-18T08:33:37.624Z,35.91
2023-11-18T08:36:39.923Z,37.30
2023-11-18T08:39:42.207Z,37.23
2023-11-18T08:42:51.858Z,38.15
2023-11-18T08:45:55.920Z,36.26
2023-11-18T08:48:58.231Z,39.86
2023-11-18T08:52:00.532Z,37.32
2023-11-18T08:55:18.782Z,37.95
2023-11-18T08:58:23.036Z,38.83
2023-11-18T09:01:29.512Z,38.10
2023-11-18T09:04:34.795Z,39.04
2023-11-18T09:07:38.036Z,36.39
2023-11-18T09:10:42.254Z,38.85
2023-11-18T09:13:50.813Z,38.39
2023-11-18T09:16:56.264Z,37.31
2023-11-18T09:19:58.583Z,36.33
2023-11-18T09:23:01.130Z,36.80
2023-11-18T09:26:08.649Z,37.38
2023-11-18T09:29:12.440Z,37.45
2023-11-18T09:32:15.967Z,36.66
2023-11-18T09:35:20.797Z,36.55
2023-11-18T09:38:23.163Z,35.72
2023-11-18T09:41:28.518Z,35.40
2023-11-18T09:44:33.433Z,36.93
2023-11-18T09:47:48.417Z,36.21
2023-11-18T09:50:52.411Z,34.94
2023-11-18T09:53:55.602Z,36.40
2023-11-18T09:57:10.602Z,35.45
2023-11-18T10:00:33.669Z,36.08
2023-11-18T10:03:39.173Z,34.87
2023-11-18T10:06:45.934Z,36.14
2023-11-18T10:09:50.076Z,35.13
2023-11-18T10:12:59.347Z,34.89
2023-11-18T10:16:06.118Z,35.08
2023-11-18T10:19:10.021Z,36.39
2023-11-18T10:22:24.824Z,35.56
2023-11-18T10:25:27.260Z,35.88
2023-11-18T10:28:34.640Z,35.45
2023-11-18T10:31:38.559Z,35.97
2023-11-18T10:34:41.086Z,34.44
2023-11-18T10:37:45.016Z,35.45
2023-11-18T10:40:47.894Z,34.54
2023-11-18T10:43:50.607Z,35.08
2023-11-18T10:46:54.641Z,34.03
2023-11-18T10:49:57.479Z,35.63
2023-11-18T10:53:04.420Z,35.33
2023-11-18T10:56:07.974Z,38.46
2023-11-18T10:59:15.181Z,39.90
2023-11-18T11:02:25.143Z,39.84
2023-11-18T11:05:34.212Z,39.72
2023-11-18T11:11:47.850Z,40.92
2023-11-18T11:14:56.801Z,39.57
2023-11-18T11:18:11.103Z,38.90
2023-11-18T11:21:23.133Z,38.24
2023-11-18T11:24:53.991Z,38.07
2023-11-18T11:28:21.166Z,38.49
2023-11-18T11:31:37.674Z,39.35
2023-11-18T11:34:52.715Z,39.24
2023-11-18T11:38:04.162Z,39.70
2023-11-18T11:41:09.560Z,40.30
2023-11-18T11:44:14.331Z,41.08
2023-11-18T11:47:17.618Z,41.32
2023-11-18T11:50:40.084Z,40.04
2023-11-18T11:53:53.645Z,41.22
2023-11-18T11:57:00.994Z,40.52
2023-11-18T12:00:17.082Z,41.08
2023-11-18T12:03:24.071Z,42.28
2023-11-18T12:06:29.076Z,42.10
2023-11-18T12:09:38.812Z,43.42
2023-11-18T12:12:43.392Z,42.36
2023-11-18T12:16:05.403Z,42.83
2023-11-18T12:19:37.910Z,44.76
2023-11-18T12:23:15.918Z,43.33
2023-11-18T12:26:44.928Z,44.89
2023-11-18T12:29:51.717Z,45.48
2023-11-18T12:33:10.554Z,44.59
2023-11-18T12:36:25.357Z,45.82
2023-11-18T12:39:51.607Z,47.34
2023-11-18T12:43:06.436Z,47.72
2023-11-18T12:46:43.861Z,49.96
2023-11-18T12:49:51.425Z,49.84
2023-11-18T12:52:54.368Z,50.19
2023-11-18T12:56:00.043Z,50.88
2023-11-18T12:59:07.191Z,49.84
2023-11-18T13:02:22.573Z,49.42
2023-11-18T13:05:30.983Z,51.29
2023-11-18T13:08:33.760Z,50.76
2023-11-18T13:11:36.297Z,51.11
2023-11-18T13:14:40.596Z,52.24
2023-11-18T13:18:07.982Z,51.31
2023-11-18T13:21:15.297Z,52.36
2023-11-18T13:24:18.158Z,53.28
2023-11-18T13:27:20.921Z,52.97
2023-11-18T13:30:23.771Z,53.22
2023-11-18T13:33:26.187Z,53.94
2023-11-18T13:36:29.213Z,54.17
2023-11-18T13:39:32.588Z,54.63
2023-11-18T13:42:37.452Z,54.87
2023-11-18T13:45:40.770Z,55.17
2023-11-18T13:48:47.919Z,55.47
2023-11-18T13:51:51.793Z,55.90
2023-11-18T13:54:58.376Z,56.46
2023-11-18T13:58:00.841Z,56.87
2023-11-18T14:01:03.221Z,56.88
2023-11-18T14:04:06.732Z,57.59
2023-11-18T14:07:10.771Z,56.60
2023-11-18T14:10:17.784Z,57.90
2023-11-18T14:13:32.132Z,56.94
2023-11-18T14:16:35.641Z,57.02
2023-11-18T14:19:38.981Z,56.35
2023-11-18T14:22:43.573Z,56.32
2023-11-18T14:25:49.619Z,56.32
2023-11-18T14:28:52.574Z,55.84
2023-11-18T14:31:58.349Z,55.95
2023-11-18T14:35:00.876Z,55.83
2023-11-18T14:38:03.615Z,56.25
2023-11-18T14:41:06.229Z,56.72
2023-11-18T14:44:10.842Z,57.56
2023-11-18T14:47:13.444Z,57.91
2023-11-18T14:50:20.594Z,57.87
2023-11-18T14:53:23.719Z,58.27
2023-11-18T14:56:26.198Z,59.01
2023-11-18T14:59:28.777Z,59.20
2023-11-18T15:02:32.117Z,59.63
2023-11-18T15:05:35.566Z,60.27
2023-11-18T15:08:42.190Z,60.68
2023-11-18T15:11:46.776Z,60.70
2023-11-18T15:14:50.374Z,60.73
2023-11-18T15:17:53.243Z,62.01
2023-11-18T15:20:57.809Z,65.11
2023-11-18T15:24:04.807Z,65.16
2023-11-18T15:27:07.077Z,65.27
2023-11-18T15:30:11.550Z,66.76
2023-11-18T15:33:16.568Z,66.89
2023-11-18T15:36:18.981Z,67.71
2023-11-18T15:39:21.318Z,67.20
2023-11-18T15:42:23.855Z,67.72
2023-11-18T15:45:27.665Z,68.31
2023-11-18T15:48:32.461Z,68.85
2023-11-18T15:51:35.201Z,68.86
2023-11-18T15:54:38.365Z,69.09
2023-11-18T15:57:42.733Z,69.16
2023-11-18T16:00:45.102Z,69.22
2023-11-18T16:03:47.740Z,69.72
2023-11-18T16:06:50.277Z,69.92
2023-11-18T16:09:52.767Z,69.33
2023-11-18T16:12:56.971Z,69.29
2023-11-18T16:15:59.285Z,70.55
2023-11-18T16:19:01.656Z,70.52
2023-11-18T16:22:04.807Z,70.50
2023-11-18T16:25:07.437Z,70.04
2023-11-18T16:28:10.845Z,70.32
2023-11-18T16:31:13.141Z,70.08
2023-11-18T16:34:15.785Z,69.44
2023-11-18T16:37:18.255Z,69.60
2023-11-18T16:40:22.257Z,69.57
2023-11-18T16:43:24.615Z,69.95
2023-11-18T16:46:26.924Z,69.25
2023-11-18T16:49:30.050Z,69.91
2023-11-18T16:52:32.573Z,69.66
2023-11-18T16:55:36.172Z,69.50
2023-11-18T16:58:38.970Z,69.97
2023-11-18T17:01:41.332Z,70.92
2023-11-18T17:04:43.829Z,70.08
2023-11-18T17:07:46.737Z,69.96
2023-11-18T17:10:54.726Z,70.97
2023-11-18T17:13:57.187Z,70.59
2023-11-18T17:16:59.714Z,70.70
2023-11-18T17:20:02.066Z,70.44
2023-11-18T17:23:04.670Z,70.81
2023-11-18T17:26:09.503Z,70.28
2023-11-18T17:29:14.880Z,71.51
2023-11-18T17:32:17.330Z,71.10
2023-11-18T17:35:21.471Z,70.91
2023-11-18T17:38:23.997Z,71.69
2023-11-18T17:41:26.589Z,71.73
2023-11-18T17:44:31.097Z,71.85
2023-11-18T17:47:38.663Z,72.33
2023-11-18T17:50:41.288Z,71.57
2023-11-18T17:53:45.782Z,72.24
2023-11-18T17:56:48.239Z,72.88
2023-11-18T17:59:54.005Z,73.30
2023-11-18T18:02:57.334Z,73.53
2023-11-18T18:06:00.632Z,72.98
2023-11-18T18:09:03.385Z,73.47
2023-11-18T18:12:09.250Z,73.98
2023-11-18T18:15:11.964Z,74.14
2023-11-18T18:18:14.395Z,74.17
2023-11-18T18:21:17.190Z,74.85
2023-11-18T18:24:19.478Z,74.84
2023-11-18T18:27:23.452Z,74.30
2023-11-18T18:30:25.833Z,74.43
2023-11-18T18:33:28.291Z,75.08
2023-11-18T18:36:30.569Z,74.77
2023-11-18T18:39:32.912Z,75.38
2023-11-18T18:42:35.179Z,75.94
2023-11-18T18:45:37.583Z,76.08
2023-11-18T18:48:40.080Z,75.34
2023-11-18T18:51:42.399Z,76.16
2023-11-18T18:54:46.339Z,76.04
2023-11-18T18:57:48.815Z,76.64
2023-11-18T19:00:53.258Z,76.64
2023-11-18T19:03:55.707Z,76.88
2023-11-18T19:06:58.025Z,77.35
2023-11-18T19:10:00.206Z,76.95
2023-11-18T19:13:04.714Z,76.86
2023-11-18T19:16:08.662Z,76.75
2023-11-18T19:19:11.260Z,77.55
2023-11-18T19:22:13.626Z,77.41
2023-11-18T19:25:16.891Z,78.37
2023-11-18T19:28:22.404Z,78.04
2023-11-18T19:31:24.986Z,78.21
2023-11-18T19:34:27.325Z,77.34
2023-11-18T19:37:29.623Z,77.51
2023-11-18T19:40:32.937Z,76.91
2023-11-18T19:43:35.389Z,76.48
2023-11-18T19:46:37.665Z,76.41
2023-11-18T19:49:42.086Z,75.72
2023-11-18T19:52:44.294Z,74.80
2023-11-18T19:55:47.020Z,74.70
2023-11-18T19:58:50.374Z,74.59
2023-11-18T20:01:55.870Z,74.34
2023-11-18T20:04:59.490Z,74.31
2023-11-18T20:08:01.808Z,73.55
2023-11-18T20:11:08.194Z,73.73
2023-11-18T20:14:10.503Z,73.31
2023-11-18T20:17:12.806Z,74.62
2023-11-18T20:20:15.817Z,73.35
2023-11-18T20:23:18.323Z,73.17
2023-11-18T20:26:20.655Z,73.82
2023-11-18T20:29:23.229Z,73.95
2023-11-18T20:32:25.569Z,73.72
2023-11-18T20:35:28.104Z,72.81
2023-11-18T20:38:33.865Z,73.20
2023-11-18T20:41:36.311Z,72.29
2023-11-18T20:44:39.229Z,71.99
2023-11-18T20:47:41.910Z,72.36
2023-11-18T20:50:51.676Z,72.76
2023-11-18T20:53:54.461Z,72.38
2023-11-18T20:56:56.739Z,73.11
2023-11-18T20:59:59.000Z,72.63
2023-11-18T21:03:01.509Z,71.84
2023-11-18T21:06:04.317Z,71.47
2023-11-18T21:09:09.645Z,71.95
2023-11-18T21:12:18.209Z,71.73
2023-11-18T21:15:29.662Z,71.55
2023-11-18T21:18:32.178Z,71.63
2023-11-18T21:21:34.814Z,72.15
2023-11-18T21:24:37.551Z,72.81
2023-11-18T21:27:39.993Z,71.96
2023-11-18T21:30:42.331Z,71.78
2023-11-18T21:33:45.054Z,72.04
2023-11-18T21:36:47.723Z,72.74
2023-11-18T21:39:50.872Z,72.76
2023-11-18T21:42:54.638Z,73.07
2023-11-18T21:45:58.116Z,73.51
2023-11-18T21:49:00.612Z,73.86
2023-11-18T21:52:02.953Z,73.96
2023-11-18T21:55:06.681Z,75.01
2023-11-18T21:58:08.964Z,74.43
2023-11-18T22:01:11.448Z,75.47
2023-11-18T22:04:13.901Z,75.56
2023-11-18T22:07:16.334Z,76.04
2023-11-18T22:10:20.140Z,76.36
2023-11-18T22:13:22.630Z,76.26
2023-11-18T22:16:28.958Z,76.63
2023-11-18T22:19:31.664Z,77.27
2023-11-18T22:22:34.505Z,77.62
2023-11-18T22:25:37.218Z,77.90
2023-11-18T22:28:40.430Z,77.03
2023-11-18T22:31:46.112Z,77.57
2023-11-18T22:34:48.763Z,76.91
2023-11-18T22:37:51.319Z,78.23
2023-11-18T22:40:53.594Z,76.24
2023-11-18T22:43:55.881Z,76.55
2023-11-18T22:47:01.492Z,77.29
2023-11-18T22:50:05.937Z,79.00
2023-11-18T22:53:10.398Z,79.51
2023-11-18T22:56:15.500Z,79.71
2023-11-18T22:59:21.217Z,80.27
2023-11-18T23:02:24.229Z,80.26
2023-11-18T23:05:26.955Z,80.13
2023-11-18T23:08:29.305Z,80.49
2023-11-18T23:11:32.272Z,79.67
2023-11-18T23:14:34.639Z,80.35
2023-11-18T23:17:37.114Z,81.05
2023-11-18T23:20:39.550Z,80.08
2023-11-18T23:23:43.496Z,80.44
2023-11-18T23:26:45.796Z,81.62
2023-11-18T23:29:48.087Z,82.47
2023-11-18T23:32:50.635Z,81.94
2023-11-18T23:35:53.680Z,81.47
2023-11-18T23:39:02.524Z,80.31
2023-11-18T23:42:06.164Z,80.04
2023-11-18T23:45:09.336Z,80.08
2023-11-18T23:48:11.826Z,80.65
2023-11-18T23:51:14.124Z,80.64
2023-11-18T23:54:16.379Z,80.68
2023-11-18T23:57:18.700Z,80.16
